KORL/ORL METAR and TAF weather

Enter ICAO airport designator
Station Type Date Time Source
KORL METAR 2019/08/24 22:53 UTC NOAA

KORL 242253Z 07011KT 10SM FEW034 31/23 A2992 RMK AO2 SLP132 T03060228


Station Type Date Time Source
KORL Decoded METAR 2019/08/24 22:53 UTC NOAA

Station name not available
Aug 24, 2019 - 06:53 PM EDT / 2019.08.24 2253 UTC
Wind: from the ENE (070 degrees) at 13 MPH (11 KT):0
Visibility: 10 mile(s):0
Sky conditions: mostly clear
Temperature: 87.1 F (30.6 C)
Heat index: 94.5 F (34.7 C):1
Dew Point: 73.0 F (22.8 C)
Relative Humidity: 63%
Pressure (altimeter): 29.92 in. Hg (1013 hPa)
ob: KORL 242253Z 07011KT 10SM FEW034 31/23 A2992 RMK AO2 SLP132 T03060228
cycle: 23

Station Type Date Time Source
KORL TAF UTC NOAA

Error!

Example: see airport list